sensor_id;sensor_type;location;lat;lon;timestamp;P1;durP1;ratioP1;P2;durP2;ratioP2
16828;SDS011;8531;48.078;11.968;2023-05-09T00:00:50;10.48;;;9.48;;
16828;SDS011;8531;48.078;11.968;2023-05-09T00:03:16;9.63;;;8.63;;
16828;SDS011;8531;48.078;11.968;2023-05-09T00:05:42;9.40;;;8.40;;
16828;SDS011;8531;48.078;11.968;2023-05-09T00:08:07;9.60;;;8.57;;
16828;SDS011;8531;48.078;11.968;2023-05-09T00:10:33;11.30;;;9.10;;
16828;SDS011;8531;48.078;11.968;2023-05-09T00:12:59;9.43;;;8.52;;
16828;SDS011;8531;48.078;11.968;2023-05-09T00:15:25;22.73;;;9.98;;
16828;SDS011;8531;48.078;11.968;2023-05-09T00:17:51;9.63;;;8.02;;
16828;SDS011;8531;48.078;11.968;2023-05-09T00:20:17;8.52;;;7.72;;
16828;SDS011;8531;48.078;11.968;2023-05-09T00:22:42;10.60;;;9.30;;
16828;SDS011;8531;48.078;11.968;2023-05-09T00:25:08;10.00;;;8.95;;
16828;SDS011;8531;48.078;11.968;2023-05-09T00:27:35;10.32;;;8.63;;
16828;SDS011;8531;48.078;11.968;2023-05-09T00:30:01;10.00;;;9.00;;
16828;SDS011;8531;48.078;11.968;2023-05-09T00:32:28;10.95;;;9.80;;
16828;SDS011;8531;48.078;11.968;2023-05-09T00:34:53;11.30;;;8.38;;
16828;SDS011;8531;48.078;11.968;2023-05-09T00:37:19;10.77;;;9.32;;
16828;SDS011;8531;48.078;11.968;2023-05-09T00:39:48;10.27;;;9.27;;
16828;SDS011;8531;48.078;11.968;2023-05-09T00:42:14;11.52;;;9.13;;
16828;SDS011;8531;48.078;11.968;2023-05-09T00:44:40;10.55;;;9.45;;
16828;SDS011;8531;48.078;11.968;2023-05-09T00:47:06;10.18;;;9.18;;
16828;SDS011;8531;48.078;11.968;2023-05-09T00:49:32;11.80;;;9.73;;
16828;SDS011;8531;48.078;11.968;2023-05-09T00:51:58;10.07;;;9.13;;
16828;SDS011;8531;48.078;11.968;2023-05-09T00:54:25;10.40;;;9.40;;
16828;SDS011;8531;48.078;11.968;2023-05-09T00:56:51;11.57;;;9.65;;
16828;SDS011;8531;48.078;11.968;2023-05-09T00:59:16;10.75;;;9.65;;
16828;SDS011;8531;48.078;11.968;2023-05-09T01:01:43;10.60;;;9.48;;
16828;SDS011;8531;48.078;11.968;2023-05-09T01:04:09;10.60;;;9.60;;
16828;SDS011;8531;48.078;11.968;2023-05-09T01:07:10;10.52;;;9.35;;
16828;SDS011;8531;48.078;11.968;2023-05-09T01:12:24;10.35;;;9.35;;
16828;SDS011;8531;48.078;11.968;2023-05-09T01:18:10;11.15;;;9.48;;
16828;SDS011;8531;48.078;11.968;2023-05-09T01:20:38;12.60;;;9.48;;
16828;SDS011;8531;48.078;11.968;2023-05-09T01:28:18;12.15;;;9.90;;
16828;SDS011;8531;48.078;11.968;2023-05-09T01:30:48;11.00;;;9.68;;
16828;SDS011;8531;48.078;11.968;2023-05-09T01:33:18;10.23;;;9.30;;
16828;SDS011;8531;48.078;11.968;2023-05-09T01:35:48;12.57;;;10.02;;
16828;SDS011;8531;48.078;11.968;2023-05-09T01:38:19;12.30;;;11.00;;
16828;SDS011;8531;48.078;11.968;2023-05-09T01:40:48;12.15;;;10.95;;
16828;SDS011;8531;48.078;11.968;2023-05-09T01:43:17;11.90;;;10.73;;
16828;SDS011;8531;48.078;11.968;2023-05-09T01:45:45;11.00;;;9.75;;
16828;SDS011;8531;48.078;11.968;2023-05-09T01:48:12;13.25;;;11.48;;
16828;SDS011;8531;48.078;11.968;2023-05-09T01:50:39;10.95;;;9.95;;
16828;SDS011;8531;48.078;11.968;2023-05-09T01:53:07;11.20;;;9.90;;
16828;SDS011;8531;48.078;11.968;2023-05-09T01:55:36;10.43;;;9.40;;
16828;SDS011;8531;48.078;11.968;2023-05-09T01:58:04;11.77;;;10.57;;
16828;SDS011;8531;48.078;11.968;2023-05-09T02:00:33;11.30;;;9.75;;
16828;SDS011;8531;48.078;11.968;2023-05-09T02:03:00;11.57;;;10.38;;
16828;SDS011;8531;48.078;11.968;2023-05-09T02:05:27;11.43;;;10.32;;
16828;SDS011;8531;48.078;11.968;2023-05-09T02:07:54;12.40;;;11.20;;
16828;SDS011;8531;48.078;11.968;2023-05-09T02:10:22;10.95;;;9.93;;
16828;SDS011;8531;48.078;11.968;2023-05-09T02:12:52;11.90;;;10.73;;
16828;SDS011;8531;48.078;11.968;2023-05-09T02:15:18;10.95;;;9.85;;
16828;SDS011;8531;48.078;11.968;2023-05-09T02:17:43;11.60;;;10.45;;
16828;SDS011;8531;48.078;11.968;2023-05-09T02:20:10;13.02;;;10.90;;
16828;SDS011;8531;48.078;11.968;2023-05-09T02:22:37;12.32;;;10.95;;
16828;SDS011;8531;48.078;11.968;2023-05-09T02:25:06;11.88;;;10.65;;
16828;SDS011;8531;48.078;11.968;2023-05-09T02:27:32;10.80;;;9.70;;
16828;SDS011;8531;48.078;11.968;2023-05-09T02:30:00;11.80;;;10.70;;
16828;SDS011;8531;48.078;11.968;2023-05-09T02:32:31;12.43;;;10.90;;
16828;SDS011;8531;48.078;11.968;2023-05-09T02:34:59;12.55;;;10.52;;
16828;SDS011;8531;48.078;11.968;2023-05-09T02:37:27;12.73;;;11.30;;
16828;SDS011;8531;48.078;11.968;2023-05-09T02:39:54;12.57;;;11.30;;
16828;SDS011;8531;48.078;11.968;2023-05-09T02:42:21;13.27;;;10.68;;
16828;SDS011;8531;48.078;11.968;2023-05-09T02:44:51;12.57;;;11.18;;
16828;SDS011;8531;48.078;11.968;2023-05-09T02:47:17;11.75;;;10.55;;
16828;SDS011;8531;48.078;11.968;2023-05-09T02:49:43;12.07;;;10.77;;
16828;SDS011;8531;48.078;11.968;2023-05-09T02:52:09;13.43;;;10.25;;
16828;SDS011;8531;48.078;11.968;2023-05-09T02:54:35;11.10;;;10.00;;
16828;SDS011;8531;48.078;11.968;2023-05-09T02:57:01;11.30;;;10.18;;
16828;SDS011;8531;48.078;11.968;2023-05-09T02:59:27;12.60;;;10.60;;
16828;SDS011;8531;48.078;11.968;2023-05-09T03:01:53;13.20;;;11.75;;
16828;SDS011;8531;48.078;11.968;2023-05-09T03:04:19;13.02;;;11.55;;
16828;SDS011;8531;48.078;11.968;2023-05-09T03:06:45;11.60;;;10.40;;
16828;SDS011;8531;48.078;11.968;2023-05-09T03:09:10;12.85;;;11.05;;
16828;SDS011;8531;48.078;11.968;2023-05-09T03:11:36;12.27;;;10.23;;
16828;SDS011;8531;48.078;11.968;2023-05-09T03:14:02;11.25;;;10.15;;
16828;SDS011;8531;48.078;11.968;2023-05-09T03:16:28;11.90;;;9.88;;
16828;SDS011;8531;48.078;11.968;2023-05-09T03:18:55;12.00;;;10.80;;
16828;SDS011;8531;48.078;11.968;2023-05-09T03:21:21;11.88;;;10.65;;
16828;SDS011;8531;48.078;11.968;2023-05-09T03:23:46;10.85;;;9.75;;
16828;SDS011;8531;48.078;11.968;2023-05-09T03:26:12;11.75;;;10.55;;
16828;SDS011;8531;48.078;11.968;2023-05-09T03:28:38;11.75;;;10.65;;
16828;SDS011;8531;48.078;11.968;2023-05-09T03:31:04;12.55;;;11.25;;
16828;SDS011;8531;48.078;11.968;2023-05-09T03:33:30;12.05;;;10.85;;
16828;SDS011;8531;48.078;11.968;2023-05-09T03:35:56;11.52;;;10.32;;
16828;SDS011;8531;48.078;11.968;2023-05-09T03:38:21;15.90;;;11.52;;
16828;SDS011;8531;48.078;11.968;2023-05-09T03:40:50;13.25;;;10.32;;
16828;SDS011;8531;48.078;11.968;2023-05-09T03:43:17;12.32;;;10.70;;
16828;SDS011;8531;48.078;11.968;2023-05-09T03:45:43;10.77;;;9.68;;
16828;SDS011;8531;48.078;11.968;2023-05-09T03:48:09;10.80;;;9.70;;
16828;SDS011;8531;48.078;11.968;2023-05-09T03:50:35;10.80;;;9.70;;
16828;SDS011;8531;48.078;11.968;2023-05-09T03:53:01;11.82;;;9.45;;
16828;SDS011;8531;48.078;11.968;2023-05-09T03:55:27;11.52;;;9.18;;
16828;SDS011;8531;48.078;11.968;2023-05-09T03:57:53;11.18;;;10.00;;
16828;SDS011;8531;48.078;11.968;2023-05-09T04:00:19;12.90;;;9.82;;
16828;SDS011;8531;48.078;11.968;2023-05-09T04:02:46;11.38;;;10.18;;
16828;SDS011;8531;48.078;11.968;2023-05-09T04:05:12;11.73;;;9.70;;
16828;SDS011;8531;48.078;11.968;2023-05-09T04:07:39;11.57;;;9.02;;
16828;SDS011;8531;48.078;11.968;2023-05-09T04:10:05;10.00;;;9.05;;
16828;SDS011;8531;48.078;11.968;2023-05-09T04:12:31;10.88;;;9.40;;
16828;SDS011;8531;48.078;11.968;2023-05-09T04:14:57;12.52;;;9.13;;
16828;SDS011;8531;48.078;11.968;2023-05-09T04:17:23;10.52;;;9.52;;
16828;SDS011;8531;48.078;11.968;2023-05-09T04:19:48;11.00;;;8.55;;
16828;SDS011;8531;48.078;11.968;2023-05-09T04:22:14;10.52;;;9.10;;
16828;SDS011;8531;48.078;11.968;2023-05-09T04:24:40;13.88;;;9.80;;
16828;SDS011;8531;48.078;11.968;2023-05-09T04:27:06;11.32;;;9.07;;
16828;SDS011;8531;48.078;11.968;2023-05-09T04:29:32;10.80;;;9.00;;
16828;SDS011;8531;48.078;11.968;2023-05-09T04:31:59;12.07;;;8.95;;
16828;SDS011;8531;48.078;11.968;2023-05-09T04:34:25;9.75;;;8.75;;
16828;SDS011;8531;48.078;11.968;2023-05-09T04:36:51;13.13;;;9.40;;
16828;SDS011;8531;48.078;11.968;2023-05-09T04:39:17;9.70;;;8.63;;
16828;SDS011;8531;48.078;11.968;2023-05-09T04:41:43;10.20;;;8.18;;
16828;SDS011;8531;48.078;11.968;2023-05-09T04:44:11;11.38;;;9.07;;
16828;SDS011;8531;48.078;11.968;2023-05-09T04:46:37;11.85;;;8.73;;
16828;SDS011;8531;48.078;11.968;2023-05-09T04:49:03;8.63;;;7.72;;
16828;SDS011;8531;48.078;11.968;2023-05-09T04:51:29;11.75;;;8.63;;
16828;SDS011;8531;48.078;11.968;2023-05-09T04:53:55;14.90;;;8.00;;
16828;SDS011;8531;48.078;11.968;2023-05-09T04:56:21;9.10;;;8.10;;
16828;SDS011;8531;48.078;11.968;2023-05-09T04:58:47;10.13;;;8.07;;
16828;SDS011;8531;48.078;11.968;2023-05-09T05:01:12;9.20;;;7.63;;
16828;SDS011;8531;48.078;11.968;2023-05-09T05:03:38;7.75;;;7.05;;
16828;SDS011;8531;48.078;11.968;2023-05-09T05:06:04;8.95;;;7.63;;
16828;SDS011;8531;48.078;11.968;2023-05-09T05:08:30;8.50;;;7.70;;
16828;SDS011;8531;48.078;11.968;2023-05-09T05:10:56;8.23;;;7.40;;
16828;SDS011;8531;48.078;11.968;2023-05-09T05:13:22;10.32;;;6.93;;
16828;SDS011;8531;48.078;11.968;2023-05-09T05:15:48;8.70;;;7.10;;
16828;SDS011;8531;48.078;11.968;2023-05-09T05:18:14;8.23;;;6.90;;
16828;SDS011;8531;48.078;11.968;2023-05-09T05:20:40;11.57;;;7.22;;
16828;SDS011;8531;48.078;11.968;2023-05-09T05:23:06;7.63;;;6.82;;
16828;SDS011;8531;48.078;11.968;2023-05-09T05:25:32;12.80;;;6.63;;
16828;SDS011;8531;48.078;11.968;2023-05-09T05:27:58;9.40;;;7.07;;
16828;SDS011;8531;48.078;11.968;2023-05-09T05:30:24;7.88;;;6.47;;
16828;SDS011;8531;48.078;11.968;2023-05-09T05:32:50;9.13;;;6.32;;
16828;SDS011;8531;48.078;11.968;2023-05-09T05:35:16;7.28;;;6.13;;
16828;SDS011;8531;48.078;11.968;2023-05-09T05:37:42;6.95;;;6.35;;
16828;SDS011;8531;48.078;11.968;2023-05-09T05:40:08;7.13;;;6.22;;
16828;SDS011;8531;48.078;11.968;2023-05-09T05:42:34;9.25;;;6.03;;
16828;SDS011;8531;48.078;11.968;2023-05-09T05:45:00;6.50;;;5.93;;
16828;SDS011;8531;48.078;11.968;2023-05-09T05:47:32;8.05;;;5.55;;
16828;SDS011;8531;48.078;11.968;2023-05-09T05:49:59;9.32;;;6.97;;
16828;SDS011;8531;48.078;11.968;2023-05-09T05:52:25;9.77;;;5.93;;
16828;SDS011;8531;48.078;11.968;2023-05-09T05:54:54;11.25;;;6.32;;
16828;SDS011;8531;48.078;11.968;2023-05-09T05:57:20;7.18;;;5.97;;
16828;SDS011;8531;48.078;11.968;2023-05-09T05:59:46;7.53;;;6.15;;
16828;SDS011;8531;48.078;11.968;2023-05-09T06:02:13;10.05;;;6.15;;
16828;SDS011;8531;48.078;11.968;2023-05-09T06:04:40;6.88;;;6.15;;
16828;SDS011;8531;48.078;11.968;2023-05-09T06:07:06;8.32;;;5.97;;
16828;SDS011;8531;48.078;11.968;2023-05-09T06:09:31;8.15;;;6.20;;
16828;SDS011;8531;48.078;11.968;2023-05-09T06:11:57;10.73;;;6.57;;
16828;SDS011;8531;48.078;11.968;2023-05-09T06:14:23;6.55;;;5.82;;
16828;SDS011;8531;48.078;11.968;2023-05-09T06:16:49;10.82;;;6.57;;
16828;SDS011;8531;48.078;11.968;2023-05-09T06:19:15;8.07;;;6.32;;
16828;SDS011;8531;48.078;11.968;2023-05-09T06:21:41;6.90;;;6.10;;
16828;SDS011;8531;48.078;11.968;2023-05-09T06:24:07;7.05;;;6.43;;
16828;SDS011;8531;48.078;11.968;2023-05-09T06:26:34;8.18;;;7.38;;
16828;SDS011;8531;48.078;11.968;2023-05-09T06:29:00;8.18;;;6.20;;
16828;SDS011;8531;48.078;11.968;2023-05-09T06:31:27;15.50;;;13.98;;
16828;SDS011;8531;48.078;11.968;2023-05-09T06:33:53;9.13;;;6.78;;
16828;SDS011;8531;48.078;11.968;2023-05-09T06:36:19;7.28;;;6.25;;
16828;SDS011;8531;48.078;11.968;2023-05-09T06:38:45;10.75;;;7.03;;
16828;SDS011;8531;48.078;11.968;2023-05-09T06:41:10;9.38;;;8.38;;
16828;SDS011;8531;48.078;11.968;2023-05-09T06:43:36;11.00;;;6.88;;
16828;SDS011;8531;48.078;11.968;2023-05-09T06:46:02;7.10;;;6.40;;
16828;SDS011;8531;48.078;11.968;2023-05-09T06:48:28;8.05;;;7.15;;
16828;SDS011;8531;48.078;11.968;2023-05-09T06:50:53;7.55;;;6.85;;
16828;SDS011;8531;48.078;11.968;2023-05-09T06:53:19;11.45;;;7.82;;
16828;SDS011;8531;48.078;11.968;2023-05-09T06:55:45;9.50;;;8.10;;
16828;SDS011;8531;48.078;11.968;2023-05-09T06:58:10;9.00;;;8.10;;
16828;SDS011;8531;48.078;11.968;2023-05-09T07:00:36;10.90;;;8.23;;
16828;SDS011;8531;48.078;11.968;2023-05-09T07:03:02;8.77;;;7.88;;
16828;SDS011;8531;48.078;11.968;2023-05-09T07:05:28;14.23;;;8.68;;
16828;SDS011;8531;48.078;11.968;2023-05-09T07:07:53;11.43;;;8.13;;
16828;SDS011;8531;48.078;11.968;2023-05-09T07:10:20;9.70;;;7.90;;
16828;SDS011;8531;48.078;11.968;2023-05-09T07:12:48;9.80;;;8.77;;
16828;SDS011;8531;48.078;11.968;2023-05-09T07:15:15;10.10;;;8.50;;
16828;SDS011;8531;48.078;11.968;2023-05-09T07:17:40;8.95;;;7.47;;
16828;SDS011;8531;48.078;11.968;2023-05-09T07:20:06;9.18;;;8.27;;
16828;SDS011;8531;48.078;11.968;2023-05-09T07:22:32;10.55;;;9.18;;
16828;SDS011;8531;48.078;11.968;2023-05-09T07:24:58;10.32;;;9.30;;
16828;SDS011;8531;48.078;11.968;2023-05-09T07:27:24;10.35;;;8.27;;
16828;SDS011;8531;48.078;11.968;2023-05-09T07:29:50;9.50;;;8.43;;
16828;SDS011;8531;48.078;11.968;2023-05-09T07:32:19;9.70;;;8.77;;
16828;SDS011;8531;48.078;11.968;2023-05-09T07:34:45;9.68;;;8.77;;
16828;SDS011;8531;48.078;11.968;2023-05-09T07:37:11;11.40;;;8.20;;
16828;SDS011;8531;48.078;11.968;2023-05-09T07:39:37;9.52;;;8.63;;
16828;SDS011;8531;48.078;11.968;2023-05-09T07:42:02;10.15;;;9.15;;
16828;SDS011;8531;48.078;11.968;2023-05-09T07:44:29;12.18;;;9.48;;
16828;SDS011;8531;48.078;11.968;2023-05-09T07:46:55;9.90;;;8.88;;
16828;SDS011;8531;48.078;11.968;2023-05-09T07:49:23;9.95;;;9.02;;
16828;SDS011;8531;48.078;11.968;2023-05-09T07:51:49;9.93;;;8.80;;
16828;SDS011;8531;48.078;11.968;2023-05-09T07:54:15;10.20;;;9.13;;
16828;SDS011;8531;48.078;11.968;2023-05-09T07:56:41;11.25;;;10.18;;
16828;SDS011;8531;48.078;11.968;2023-05-09T07:59:07;9.98;;;9.05;;
16828;SDS011;8531;48.078;11.968;2023-05-09T08:01:32;12.38;;;9.23;;
16828;SDS011;8531;48.078;11.968;2023-05-09T08:03:58;10.82;;;9.23;;
16828;SDS011;8531;48.078;11.968;2023-05-09T08:06:24;11.27;;;9.93;;
16828;SDS011;8531;48.078;11.968;2023-05-09T08:08:50;10.88;;;9.63;;
16828;SDS011;8531;48.078;11.968;2023-05-09T08:11:16;9.70;;;8.77;;
16828;SDS011;8531;48.078;11.968;2023-05-09T08:13:42;9.23;;;8.15;;
16828;SDS011;8531;48.078;11.968;2023-05-09T08:16:07;9.57;;;8.68;;
16828;SDS011;8531;48.078;11.968;2023-05-09T08:18:33;11.43;;;9.02;;
16828;SDS011;8531;48.078;11.968;2023-05-09T08:20:59;10.13;;;8.75;;
16828;SDS011;8531;48.078;11.968;2023-05-09T08:23:25;10.30;;;9.20;;
16828;SDS011;8531;48.078;11.968;2023-05-09T08:25:51;13.18;;;9.40;;
16828;SDS011;8531;48.078;11.968;2023-05-09T08:28:18;10.00;;;9.00;;
16828;SDS011;8531;48.078;11.968;2023-05-09T08:30:46;9.27;;;8.38;;
16828;SDS011;8531;48.078;11.968;2023-05-09T08:33:11;15.95;;;9.90;;
16828;SDS011;8531;48.078;11.968;2023-05-09T08:35:37;10.43;;;9.32;;
16828;SDS011;8531;48.078;11.968;2023-05-09T08:38:03;12.18;;;9.35;;
16828;SDS011;8531;48.078;11.968;2023-05-09T08:40:28;10.48;;;9.48;;
16828;SDS011;8531;48.078;11.968;2023-05-09T08:42:54;14.05;;;9.63;;
16828;SDS011;8531;48.078;11.968;2023-05-09T08:45:21;10.35;;;9.40;;
16828;SDS011;8531;48.078;11.968;2023-05-09T08:47:51;11.48;;;10.38;;
16828;SDS011;8531;48.078;11.968;2023-05-09T08:50:18;12.52;;;9.82;;
16828;SDS011;8531;48.078;11.968;2023-05-09T08:52:44;11.70;;;10.30;;
16828;SDS011;8531;48.078;11.968;2023-05-09T08:55:10;14.85;;;10.82;;
16828;SDS011;8531;48.078;11.968;2023-05-09T08:57:36;13.68;;;10.80;;
16828;SDS011;8531;48.078;11.968;2023-05-09T09:00:02;10.43;;;9.43;;
16828;SDS011;8531;48.078;11.968;2023-05-09T09:02:35;11.45;;;10.35;;
16828;SDS011;8531;48.078;11.968;2023-05-09T09:05:04;10.95;;;9.95;;
16828;SDS011;8531;48.078;11.968;2023-05-09T09:07:32;12.70;;;11.38;;
16828;SDS011;8531;48.078;11.968;2023-05-09T09:09:58;12.15;;;10.90;;
16828;SDS011;8531;48.078;11.968;2023-05-09T09:12:26;12.77;;;10.80;;
16828;SDS011;8531;48.078;11.968;2023-05-09T09:14:53;13.43;;;10.93;;
16828;SDS011;8531;48.078;11.968;2023-05-09T09:17:23;10.63;;;9.63;;
16828;SDS011;8531;48.078;11.968;2023-05-09T09:20:02;11.30;;;10.20;;
16828;SDS011;8531;48.078;11.968;2023-05-09T09:22:32;12.98;;;11.68;;
16828;SDS011;8531;48.078;11.968;2023-05-09T09:25:00;11.52;;;10.35;;
16828;SDS011;8531;48.078;11.968;2023-05-09T09:27:26;10.93;;;9.82;;
16828;SDS011;8531;48.078;11.968;2023-05-09T09:29:52;11.43;;;10.32;;
16828;SDS011;8531;48.078;11.968;2023-05-09T09:32:18;10.55;;;9.65;;
16828;SDS011;8531;48.078;11.968;2023-05-09T09:34:45;11.70;;;9.73;;
16828;SDS011;8531;48.078;11.968;2023-05-09T09:37:20;12.75;;;11.60;;
16828;SDS011;8531;48.078;11.968;2023-05-09T09:39:56;11.23;;;10.23;;
16828;SDS011;8531;48.078;11.968;2023-05-09T09:42:21;11.75;;;10.55;;
16828;SDS011;8531;48.078;11.968;2023-05-09T09:44:55;10.82;;;9.73;;
16828;SDS011;8531;48.078;11.968;2023-05-09T09:47:32;11.07;;;9.95;;
16828;SDS011;8531;48.078;11.968;2023-05-09T09:49:58;10.00;;;9.10;;
16828;SDS011;8531;48.078;11.968;2023-05-09T09:52:34;10.07;;;9.07;;
16828;SDS011;8531;48.078;11.968;2023-05-09T09:55:00;10.88;;;9.88;;
16828;SDS011;8531;48.078;11.968;2023-05-09T09:57:32;10.93;;;9.70;;
16828;SDS011;8531;48.078;11.968;2023-05-09T10:00:01;10.13;;;9.20;;
16828;SDS011;8531;48.078;11.968;2023-05-09T10:02:27;9.30;;;8.43;;
16828;SDS011;8531;48.078;11.968;2023-05-09T10:04:53;10.20;;;9.20;;
16828;SDS011;8531;48.078;11.968;2023-05-09T10:07:21;10.10;;;9.10;;
16828;SDS011;8531;48.078;11.968;2023-05-09T10:09:49;9.88;;;8.88;;
16828;SDS011;8531;48.078;11.968;2023-05-09T10:12:15;8.25;;;7.28;;
16828;SDS011;8531;48.078;11.968;2023-05-09T10:14:44;10.57;;;9.68;;
16828;SDS011;8531;48.078;11.968;2023-05-09T10:17:13;11.40;;;9.55;;
16828;SDS011;8531;48.078;11.968;2023-05-09T10:19:42;10.82;;;9.75;;
16828;SDS011;8531;48.078;11.968;2023-05-09T10:22:13;11.48;;;10.40;;
16828;SDS011;8531;48.078;11.968;2023-05-09T10:27:37;11.63;;;10.52;;
16828;SDS011;8531;48.078;11.968;2023-05-09T10:30:12;11.45;;;10.23;;
16828;SDS011;8531;48.078;11.968;2023-05-09T10:32:47;10.82;;;9.70;;
16828;SDS011;8531;48.078;11.968;2023-05-09T10:35:18;11.35;;;10.35;;
16828;SDS011;8531;48.078;11.968;2023-05-09T10:37:48;11.75;;;10.65;;
16828;SDS011;8531;48.078;11.968;2023-05-09T10:40:14;11.63;;;10.63;;
16828;SDS011;8531;48.078;11.968;2023-05-09T10:42:42;12.45;;;10.98;;
16828;SDS011;8531;48.078;11.968;2023-05-09T10:45:08;11.07;;;9.98;;
16828;SDS011;8531;48.078;11.968;2023-05-09T10:47:41;12.27;;;10.23;;
16828;SDS011;8531;48.078;11.968;2023-05-09T10:50:09;10.93;;;9.82;;
16828;SDS011;8531;48.078;11.968;2023-05-09T10:55:38;10.27;;;9.18;;
16828;SDS011;8531;48.078;11.968;2023-05-09T11:00:45;10.77;;;9.15;;
16828;SDS011;8531;48.078;11.968;2023-05-09T11:03:12;10.68;;;9.68;;
16828;SDS011;8531;48.078;11.968;2023-05-09T11:05:38;10.75;;;9.65;;
16828;SDS011;8531;48.078;11.968;2023-05-09T11:10:53;8.80;;;8.00;;
16828;SDS011;8531;48.078;11.968;2023-05-09T11:13:20;10.05;;;9.05;;
16828;SDS011;8531;48.078;11.968;2023-05-09T11:18:25;9.85;;;7.95;;
16828;SDS011;8531;48.078;11.968;2023-05-09T11:20:52;10.80;;;9.05;;
16828;SDS011;8531;48.078;11.968;2023-05-09T11:23:19;9.90;;;9.00;;
16828;SDS011;8531;48.078;11.968;2023-05-09T11:25:49;14.15;;;9.05;;
16828;SDS011;8531;48.078;11.968;2023-05-09T11:28:26;16.73;;;8.57;;
16828;SDS011;8531;48.078;11.968;2023-05-09T11:30:53;9.93;;;8.10;;
16828;SDS011;8531;48.078;11.968;2023-05-09T11:33:43;10.10;;;8.55;;
16828;SDS011;8531;48.078;11.968;2023-05-09T11:39:02;9.88;;;8.88;;
16828;SDS011;8531;48.078;11.968;2023-05-09T11:41:37;9.68;;;8.73;;
16828;SDS011;8531;48.078;11.968;2023-05-09T11:44:14;9.75;;;8.75;;
16828;SDS011;8531;48.078;11.968;2023-05-09T11:46:41;10.07;;;9.18;;
16828;SDS011;8531;48.078;11.968;2023-05-09T11:49:07;12.75;;;8.77;;
16828;SDS011;8531;48.078;11.968;2023-05-09T11:51:34;10.35;;;8.60;;
16828;SDS011;8531;48.078;11.968;2023-05-09T11:54:02;10.35;;;9.05;;
16828;SDS011;8531;48.078;11.968;2023-05-09T11:56:29;9.85;;;8.85;;
16828;SDS011;8531;48.078;11.968;2023-05-09T11:58:55;9.73;;;8.75;;
16828;SDS011;8531;48.078;11.968;2023-05-09T12:01:22;9.95;;;8.68;;
16828;SDS011;8531;48.078;11.968;2023-05-09T12:03:48;11.80;;;8.00;;
16828;SDS011;8531;48.078;11.968;2023-05-09T12:06:17;8.63;;;7.82;;
16828;SDS011;8531;48.078;11.968;2023-05-09T12:08:44;12.93;;;8.35;;
16828;SDS011;8531;48.078;11.968;2023-05-09T12:11:10;8.93;;;8.13;;
16828;SDS011;8531;48.078;11.968;2023-05-09T12:13:47;8.10;;;7.40;;
16828;SDS011;8531;48.078;11.968;2023-05-09T12:16:14;8.27;;;7.50;;
16828;SDS011;8531;48.078;11.968;2023-05-09T12:18:59;8.57;;;7.72;;
16828;SDS011;8531;48.078;11.968;2023-05-09T12:21:24;10.95;;;7.90;;
16828;SDS011;8531;48.078;11.968;2023-05-09T12:23:50;9.05;;;7.97;;
16828;SDS011;8531;48.078;11.968;2023-05-09T12:26:20;9.63;;;7.63;;
16828;SDS011;8531;48.078;11.968;2023-05-09T12:28:46;6.85;;;6.25;;
16828;SDS011;8531;48.078;11.968;2023-05-09T12:31:12;8.00;;;7.20;;
16828;SDS011;8531;48.078;11.968;2023-05-09T12:33:38;8.05;;;7.40;;
16828;SDS011;8531;48.078;11.968;2023-05-09T12:36:08;8.52;;;7.82;;
16828;SDS011;8531;48.078;11.968;2023-05-09T12:38:35;9.38;;;8.43;;
16828;SDS011;8531;48.078;11.968;2023-05-09T12:41:02;9.15;;;8.30;;
16828;SDS011;8531;48.078;11.968;2023-05-09T12:43:31;8.43;;;7.28;;
16828;SDS011;8531;48.078;11.968;2023-05-09T12:45:59;8.95;;;7.93;;
16828;SDS011;8531;48.078;11.968;2023-05-09T12:48:26;8.95;;;7.55;;
16828;SDS011;8531;48.078;11.968;2023-05-09T12:50:52;7.68;;;6.95;;
16828;SDS011;8531;48.078;11.968;2023-05-09T12:53:24;8.88;;;7.30;;
16828;SDS011;8531;48.078;11.968;2023-05-09T12:55:53;7.53;;;6.68;;
16828;SDS011;8531;48.078;11.968;2023-05-09T12:58:20;7.47;;;6.78;;
16828;SDS011;8531;48.078;11.968;2023-05-09T13:00:46;7.50;;;6.80;;
16828;SDS011;8531;48.078;11.968;2023-05-09T13:03:21;10.88;;;7.18;;
16828;SDS011;8531;48.078;11.968;2023-05-09T13:06:01;6.88;;;6.30;;
16828;SDS011;8531;48.078;11.968;2023-05-09T13:08:31;7.03;;;6.32;;
16828;SDS011;8531;48.078;11.968;2023-05-09T13:10:57;8.50;;;6.75;;
16828;SDS011;8531;48.078;11.968;2023-05-09T13:13:24;6.80;;;6.18;;
16828;SDS011;8531;48.078;11.968;2023-05-09T13:15:51;8.30;;;6.18;;
16828;SDS011;8531;48.078;11.968;2023-05-09T13:18:17;6.47;;;5.88;;
16828;SDS011;8531;48.078;11.968;2023-05-09T13:20:44;7.47;;;6.57;;
16828;SDS011;8531;48.078;11.968;2023-05-09T13:23:09;7.88;;;6.68;;
16828;SDS011;8531;48.078;11.968;2023-05-09T13:25:35;7.68;;;5.95;;
16828;SDS011;8531;48.078;11.968;2023-05-09T13:28:01;6.57;;;6.03;;
16828;SDS011;8531;48.078;11.968;2023-05-09T13:30:27;8.52;;;7.15;;
16828;SDS011;8531;48.078;11.968;2023-05-09T13:32:53;10.98;;;6.32;;
16828;SDS011;8531;48.078;11.968;2023-05-09T13:35:19;6.93;;;5.57;;
16828;SDS011;8531;48.078;11.968;2023-05-09T13:37:45;5.90;;;5.38;;
16828;SDS011;8531;48.078;11.968;2023-05-09T13:40:10;6.65;;;6.00;;
16828;SDS011;8531;48.078;11.968;2023-05-09T13:42:37;7.25;;;5.57;;
16828;SDS011;8531;48.078;11.968;2023-05-09T13:45:03;6.20;;;5.70;;
16828;SDS011;8531;48.078;11.968;2023-05-09T13:47:29;6.22;;;5.72;;
16828;SDS011;8531;48.078;11.968;2023-05-09T13:49:55;6.80;;;6.15;;
16828;SDS011;8531;48.078;11.968;2023-05-09T13:52:20;7.03;;;6.35;;
16828;SDS011;8531;48.078;11.968;2023-05-09T13:54:47;7.80;;;6.10;;
16828;SDS011;8531;48.078;11.968;2023-05-09T13:57:12;5.85;;;5.30;;
16828;SDS011;8531;48.078;11.968;2023-05-09T13:59:38;9.63;;;6.18;;
16828;SDS011;8531;48.078;11.968;2023-05-09T14:02:07;6.68;;;5.20;;
16828;SDS011;8531;48.078;11.968;2023-05-09T14:04:32;6.75;;;5.93;;
16828;SDS011;8531;48.078;11.968;2023-05-09T14:06:59;9.70;;;6.10;;
16828;SDS011;8531;48.078;11.968;2023-05-09T14:09:25;6.93;;;6.25;;
16828;SDS011;8531;48.078;11.968;2023-05-09T14:11:52;7.00;;;6.32;;
16828;SDS011;8531;48.078;11.968;2023-05-09T14:14:18;8.90;;;5.32;;
16828;SDS011;8531;48.078;11.968;2023-05-09T14:16:45;6.03;;;5.43;;
16828;SDS011;8531;48.078;11.968;2023-05-09T14:19:12;11.13;;;5.78;;
16828;SDS011;8531;48.078;11.968;2023-05-09T14:21:41;6.00;;;5.40;;
16828;SDS011;8531;48.078;11.968;2023-05-09T14:24:08;6.65;;;5.90;;
16828;SDS011;8531;48.078;11.968;2023-05-09T14:26:34;7.10;;;6.22;;
16828;SDS011;8531;48.078;11.968;2023-05-09T14:29:01;8.98;;;6.03;;
16828;SDS011;8531;48.078;11.968;2023-05-09T14:31:28;5.82;;;5.25;;
16828;SDS011;8531;48.078;11.968;2023-05-09T14:33:54;6.38;;;5.55;;
16828;SDS011;8531;48.078;11.968;2023-05-09T14:36:20;5.65;;;5.13;;
16828;SDS011;8531;48.078;11.968;2023-05-09T14:38:46;6.43;;;5.82;;
16828;SDS011;8531;48.078;11.968;2023-05-09T14:41:12;8.23;;;5.88;;
16828;SDS011;8531;48.078;11.968;2023-05-09T14:43:38;5.75;;;5.25;;
16828;SDS011;8531;48.078;11.968;2023-05-09T14:46:04;8.73;;;5.47;;
16828;SDS011;8531;48.078;11.968;2023-05-09T14:48:30;7.30;;;5.53;;
16828;SDS011;8531;48.078;11.968;2023-05-09T14:50:57;9.05;;;5.38;;
16828;SDS011;8531;48.078;11.968;2023-05-09T14:53:23;5.70;;;5.10;;
16828;SDS011;8531;48.078;11.968;2023-05-09T14:55:49;5.55;;;5.05;;
16828;SDS011;8531;48.078;11.968;2023-05-09T14:58:17;6.68;;;5.32;;
16828;SDS011;8531;48.078;11.968;2023-05-09T15:00:44;6.10;;;4.70;;
16828;SDS011;8531;48.078;11.968;2023-05-09T15:03:10;6.28;;;5.68;;
16828;SDS011;8531;48.078;11.968;2023-05-09T15:05:36;5.97;;;5.38;;